Time;durP1;ratioP1;P1;durP2;ratioP2;P2;SDS_P1;SDS_P2;PMS_P1;PMS_P2;Temp;Humidity;BMP_temperature;BMP_pressure;BME280_temperature;BME280_humidity;BME280_pressure;Samples;Min_cycle;Max_cycle;Signal;HPM_P1;HPM_P2
2022/10/26 00:02:17;;;;;;;22.92;12.10;;;10.80;99.90;;;;;;5007032;28;20041;-66
2022/10/26 00:04:43;;;;;;;27.38;13.07;;;9.80;99.90;;;;;;5005218;28;20562;-67
2022/10/26 00:07:09;;;;;;;25.10;12.27;;;11.00;99.90;;;;;;5007304;28;20258;-67
2022/10/26 00:09:34;;;;;;;30.63;13.70;;;9.70;99.90;;;;;;5008701;28;20045;-67
2022/10/26 00:12:00;;;;;;;26.17;13.55;;;9.80;99.90;;;;;;5003332;28;20114;-67
2022/10/26 00:14:26;;;;;;;19.35;12.57;;;10.10;99.90;;;;;;5006641;28;20145;-67
2022/10/26 00:16:52;;;;;;;21.80;11.60;;;9.80;99.90;;;;;;5005515;28;20033;-66
2022/10/26 00:19:17;;;;;;;20.20;11.27;;;9.80;99.90;;;;;;5009287;28;20876;-67
2022/10/26 00:21:43;;;;;;;24.38;12.00;;;11.30;99.90;;;;;;5007319;28;20454;-67
2022/10/26 00:24:11;;;;;;;20.85;11.60;;;9.70;99.90;;;;;;5006151;28;20491;-67
2022/10/26 00:26:37;;;;;;;20.88;12.00;;;9.80;99.90;;;;;;5005832;28;20465;-67
2022/10/26 00:29:04;;;;;;;27.33;13.48;;;9.70;99.90;;;;;;5007650;28;20037;-67
2022/10/26 00:31:29;;;;;;;18.20;10.68;;;9.70;99.90;;;;;;5006659;28;20045;-67
2022/10/26 00:33:56;;;;;;;22.52;12.25;;;11.00;99.90;;;;;;5008628;28;20041;-67
2022/10/26 00:36:23;;;;;;;20.27;10.77;;;9.90;99.90;;;;;;5004564;28;20085;-67
2022/10/26 00:38:51;;;;;;;18.52;11.15;;;10.80;99.90;;;;;;5004099;28;20037;-67
2022/10/26 00:41:20;;;;;;;18.98;11.65;;;9.50;99.90;;;;;;5006861;28;20037;-67
2022/10/26 00:43:46;;;;;;;20.42;11.52;;;9.80;99.90;;;;;;5003500;28;20076;-67
2022/10/26 00:46:17;;;;;;;22.98;12.52;;;11.20;99.90;;;;;;5003101;28;20094;-67
2022/10/26 00:48:51;;;;;;;20.23;10.93;;;9.70;99.90;;;;;;5007444;28;20480;-67
2022/10/26 00:51:41;;;;;;;22.38;11.82;;;9.60;99.90;;;;;;5002406;28;20131;-66
2022/10/26 00:54:13;;;;;;;20.13;11.15;;;9.70;99.90;;;;;;5004262;28;20033;-66
2022/10/26 00:56:39;;;;;;;22.53;11.13;;;10.90;99.90;;;;;;5005848;28;20166;-67
2022/10/26 00:59:08;;;;;;;17.25;10.85;;;11.70;99.90;;;;;;5003750;28;20670;-67
2022/10/26 01:01:36;;;;;;;19.13;11.05;;;9.40;99.90;;;;;;5008489;28;20034;-67
2022/10/26 01:04:02;;;;;;;21.83;10.85;;;9.50;99.90;;;;;;5004231;28;20281;-67
2022/10/26 01:06:30;;;;;;;24.58;11.48;;;9.50;99.90;;;;;;5003756;28;20295;-66
2022/10/26 01:08:56;;;;;;;23.90;11.05;;;9.50;99.90;;;;;;5006064;28;20157;-67
2022/10/26 01:11:22;;;;;;;20.33;10.95;;;9.60;99.90;;;;;;5000973;28;20121;-66
2022/10/26 01:13:51;;;;;;;24.80;12.18;;;9.60;99.90;;;;;;5007373;28;20170;-67
2022/10/26 01:16:39;;;;;;;16.60;10.95;;;10.30;99.90;;;;;;5004119;28;20120;-67
2022/10/26 01:19:10;;;;;;;28.27;12.65;;;11.20;99.90;;;;;;5004829;28;20045;-66
2022/10/26 01:22:01;;;;;;;20.73;11.60;;;7.80;99.90;;;;;;5006691;28;20083;-67
2022/10/26 01:25:07;;;;;;;20.23;12.05;;;9.50;99.90;;;;;;5002990;28;20061;-67
2022/10/26 01:27:40;;;;;;;22.00;11.07;;;9.40;99.90;;;;;;5002384;28;20532;-67
2022/10/26 01:30:19;;;;;;;18.35;11.98;;;9.50;99.90;;;;;;5003627;28;20038;-67
2022/10/26 01:33:11;;;;;;;20.58;11.60;;;9.50;99.90;;;;;;5004765;28;20038;-67
2022/10/26 01:35:52;;;;;;;20.85;12.75;;;9.50;99.90;;;;;;4988344;28;20049;-67
2022/10/26 01:38:30;;;;;;;18.83;12.25;;;9.40;99.90;;;;;;5002307;28;20514;-66
2022/10/26 01:41:09;;;;;;;20.42;13.27;;;9.20;99.90;;;;;;5005244;28;20042;-67
2022/10/26 01:43:38;;;;;;;24.30;14.43;;;9.20;99.90;;;;;;5004949;28;20538;-67
2022/10/26 01:46:06;;;;;;;19.00;13.60;;;9.20;99.90;;;;;;5003687;28;20866;-67
2022/10/26 01:48:33;;;;;;;25.98;12.73;;;11.10;99.90;;;;;;5006158;28;20049;-66
2022/10/26 01:51:00;;;;;;;22.90;13.82;;;10.60;99.90;;;;;;5004509;28;20129;-67
2022/10/26 01:53:27;;;;;;;19.98;13.13;;;9.30;99.90;;;;;;5006758;28;20029;-67
2022/10/26 01:55:54;;;;;;;17.90;13.30;;;9.10;99.90;;;;;;5003905;28;20049;-66
2022/10/26 01:58:45;;;;;;;20.63;13.43;;;9.30;99.90;;;;;;5005329;28;20567;-67
2022/10/26 02:01:50;;;;;;;23.85;14.05;;;9.40;99.90;;;;;;5004785;28;20152;-67
2022/10/26 02:04:34;;;;;;;26.42;15.13;;;9.20;99.90;;;;;;5014721;28;20061;-68
2022/10/26 02:07:18;;;;;;;26.58;15.27;;;9.20;99.90;;;;;;5002802;28;20075;-67
2022/10/26 02:10:09;;;;;;;25.60;16.02;;;9.20;99.90;;;;;;5001327;28;20041;-66
2022/10/26 02:13:03;;;;;;;27.88;17.38;;;10.70;99.90;;;;;;5004923;28;20045;-67
2022/10/26 02:16:08;;;;;;;23.92;14.30;;;9.10;99.90;;;;;;5002561;28;20044;-67
2022/10/26 02:18:42;;;;;;;26.27;16.90;;;9.10;99.90;;;;;;5010655;28;20383;-67
2022/10/26 02:21:18;;;;;;;36.25;17.92;;;9.20;99.90;;;;;;5006440;28;20053;-67
2022/10/26 02:23:46;;;;;;;25.88;15.80;;;8.90;99.90;;;;;;5005005;28;20106;-67
2022/10/26 02:26:15;;;;;;;24.35;15.40;;;9.10;99.90;;;;;;5005762;28;20490;-67
2022/10/26 02:28:48;;;;;;;21.23;14.02;;;8.90;99.90;;;;;;5004853;28;20038;-67
2022/10/26 02:31:15;;;;;;;22.75;14.80;;;9.00;99.90;;;;;;5001398;28;20052;-68
2022/10/26 02:33:46;;;;;;;22.60;15.88;;;8.90;99.90;;;;;;5006131;28;20038;-67
2022/10/26 02:36:18;;;;;;;20.40;14.48;;;8.90;99.90;;;;;;5001220;28;20428;-67
2022/10/26 02:38:44;;;;;;;;;;;9.80;99.90;;;;;;5002263;28;20046;-67
2022/10/26 02:41:12;;;;;;;20.50;13.55;;;9.00;99.90;;;;;;5002816;28;19921;-67
2022/10/26 02:43:44;;;;;;;29.20;15.38;;;9.40;99.90;;;;;;4998370;28;20049;-67
2022/10/26 02:46:15;;;;;;;19.98;13.52;;;9.20;99.90;;;;;;5005114;28;20045;-66
2022/10/26 02:48:41;;;;;;;18.45;13.90;;;8.80;99.90;;;;;;5004578;28;20098;-67
2022/10/26 02:51:32;;;;;;;24.55;15.80;;;8.70;99.90;;;;;;5004597;28;20053;-66
2022/10/26 02:54:10;;;;;;;19.83;14.05;;;8.80;99.90;;;;;;5000414;28;20041;-66
2022/10/26 02:57:11;;;;;;;22.20;14.45;;;8.80;99.90;;;;;;5004859;28;20507;-67
2022/10/26 02:59:41;;;;;;;22.02;13.55;;;8.80;99.90;;;;;;5017360;28;20073;-67
2022/10/26 03:02:07;;;;;;;23.40;14.50;;;10.70;99.90;;;;;;4999905;28;20124;-67
2022/10/26 03:04:34;;;;;;;21.60;14.23;;;8.80;99.90;;;;;;5007108;28;20134;-67
2022/10/26 03:07:00;;;;;;;24.20;15.35;;;10.00;99.90;;;;;;5005980;28;20071;-67
2022/10/26 03:09:27;;;;;;;27.65;14.88;;;10.00;99.90;;;;;;5006598;28;20037;-67
2022/10/26 03:11:53;;;;;;;23.58;15.57;;;8.80;99.90;;;;;;5008257;28;20113;-67
2022/10/26 03:14:19;;;;;;;28.23;16.33;;;10.90;99.90;;;;;;5008536;28;20595;-67
2022/10/26 03:16:44;;;;;;;22.42;15.23;;;10.10;99.90;;;;;;5007748;28;20056;-67
2022/10/26 03:19:10;;;;;;;25.38;15.23;;;9.40;99.90;;;;;;5006052;28;20037;-67
2022/10/26 03:21:36;;;;;;;24.30;15.27;;;9.10;99.90;;;;;;5007698;28;20042;-67
2022/10/26 03:24:01;;;;;;;29.25;14.75;;;9.10;99.90;;;;;;5006572;28;20132;-66
2022/10/26 03:26:27;;;;;;;24.23;15.20;;;8.90;99.90;;;;;;5004597;28;20094;-66
2022/10/26 03:28:53;;;;;;;28.20;14.70;;;9.10;99.90;;;;;;5002394;28;20041;-67
2022/10/26 03:31:19;;;;;;;25.08;15.82;;;9.10;99.90;;;;;;5001720;28;20050;-66
2022/10/26 03:33:44;;;;;;;25.98;15.00;;;8.90;99.90;;;;;;5006805;28;20316;-67
2022/10/26 03:36:10;;;;;;;29.10;15.60;;;9.10;99.90;;;;;;5004159;28;20045;-66
2022/10/26 03:38:36;;;;;;;20.80;14.82;;;9.20;99.90;;;;;;5008510;28;20134;-66
2022/10/26 03:41:02;;;;;;;27.83;14.13;;;8.90;99.90;;;;;;5007936;28;20137;-66
2022/10/26 03:43:27;;;;;;;25.02;16.15;;;9.20;99.90;;;;;;5004878;28;20053;-66
2022/10/26 03:45:53;;;;;;;25.85;14.20;;;9.60;99.90;;;;;;5006073;28;20133;-67
2022/10/26 03:48:19;;;;;;;21.27;13.55;;;9.10;99.90;;;;;;5002576;28;20069;-67
2022/10/26 03:50:45;;;;;;;22.33;13.98;;;9.40;99.90;;;;;;5004754;28;20080;-66
2022/10/26 03:53:10;;;;;;;19.45;13.32;;;10.80;99.90;;;;;;5006879;28;20107;-64
2022/10/26 03:55:36;;;;;;;21.73;14.60;;;10.60;99.90;;;;;;5006840;28;20040;-64
2022/10/26 03:58:02;;;;;;;24.67;14.07;;;10.30;99.90;;;;;;5007616;28;20033;-64
2022/10/26 04:00:27;;;;;;;22.10;15.05;;;9.10;99.90;;;;;;5005921;28;20074;-64
2022/10/26 04:02:55;;;;;;;22.33;13.85;;;10.10;99.90;;;;;;5007933;28;20077;-65
2022/10/26 04:05:21;;;;;;;22.35;13.77;;;9.00;99.90;;;;;;5005599;28;20045;-64
2022/10/26 04:07:58;;;;;;;24.73;14.40;;;11.50;99.90;;;;;;5004838;28;20045;-64
2022/10/26 04:10:25;;;;;;;25.30;14.27;;;8.90;99.90;;;;;;5003630;28;20579;-64
2022/10/26 04:12:52;;;;;;;26.17;14.10;;;10.10;99.90;;;;;;5007189;28;20040;-64
2022/10/26 04:15:19;;;;;;;19.83;13.68;;;10.00;99.90;;;;;;5007426;28;20044;-64
2022/10/26 04:17:45;;;;;;;21.48;13.52;;;9.50;99.90;;;;;;5007336;28;20520;-64
2022/10/26 04:20:11;;;;;;;21.50;13.88;;;9.00;99.90;;;;;;5009033;28;20494;-64
2022/10/26 04:22:37;;;;;;;23.02;15.27;;;9.10;99.90;;;;;;5007346;28;20772;-64
2022/10/26 04:25:04;;;;;;;24.13;15.00;;;9.00;99.90;;;;;;5006103;28;20042;-64
2022/10/26 04:27:29;;;;;;;23.13;14.77;;;9.00;99.90;;;;;;5004634;28;20049;-64
2022/10/26 04:29:55;;;;;;;22.63;14.93;;;8.90;99.90;;;;;;5005669;28;20049;-64
2022/10/26 04:32:21;;;;;;;23.55;13.88;;;11.10;99.90;;;;;;5008955;28;20072;-63
2022/10/26 04:34:46;;;;;;;25.10;15.98;;;9.10;99.90;;;;;;5005448;28;20077;-64
2022/10/26 04:37:12;;;;;;;22.13;15.63;;;9.00;99.90;;;;;;5007874;28;20044;-64
2022/10/26 04:39:38;;;;;;;21.70;15.40;;;10.50;99.90;;;;;;5005124;28;20575;-63
2022/10/26 04:42:04;;;;;;;20.55;15.52;;;9.60;99.90;;;;;;5004228;28;20128;-63
2022/10/26 04:44:29;;;;;;;22.80;15.00;;;9.10;99.90;;;;;;5004579;28;20068;-63
2022/10/26 04:46:55;;;;;;;23.73;16.13;;;9.00;99.90;;;;;;5004490;28;20133;-63
2022/10/26 04:49:21;;;;;;;20.55;15.13;;;11.00;99.90;;;;;;5006125;28;20064;-63
2022/10/26 04:51:47;;;;;;;25.73;15.90;;;9.20;99.90;;;;;;5004110;28;20110;-63
2022/10/26 04:54:12;;;;;;;22.80;15.25;;;9.20;99.90;;;;;;5004691;28;20518;-63
2022/10/26 04:56:38;;;;;;;29.30;15.70;;;10.20;99.90;;;;;;5005851;28;20069;-64
2022/10/26 04:59:04;;;;;;;26.15;15.90;;;9.30;99.90;;;;;;5006085;28;20773;-63
2022/10/26 05:01:30;;;;;;;27.52;17.25;;;9.20;99.90;;;;;;5006202;28;20049;-65
2022/10/26 05:03:56;;;;;;;22.92;16.52;;;10.10;99.90;;;;;;5005115;28;20044;-63
2022/10/26 05:06:22;;;;;;;27.92;16.15;;;9.30;99.90;;;;;;5004634;28;20041;-64
2022/10/26 05:08:47;;;;;;;26.17;17.27;;;10.80;99.90;;;;;;5003531;28;20128;-64
2022/10/26 05:11:13;;;;;;;24.42;16.73;;;10.30;99.90;;;;;;5004088;28;20135;-63
2022/10/26 05:13:39;;;;;;;32.35;18.52;;;9.40;99.90;;;;;;5002840;28;20684;-63
2022/10/26 05:16:05;;;;;;;23.60;17.38;;;9.40;99.90;;;;;;5003847;28;20447;-64
2022/10/26 05:18:31;;;;;;;28.05;18.67;;;9.40;99.90;;;;;;5005912;28;20526;-64
2022/10/26 05:20:56;;;;;;;29.42;17.95;;;9.50;99.90;;;;;;5007532;28;20125;-63
2022/10/26 05:23:22;;;;;;;26.05;17.02;;;9.40;99.90;;;;;;5006682;28;20761;-64
2022/10/26 05:25:48;;;;;;;30.17;19.25;;;10.60;99.90;;;;;;5002690;28;20111;-65
2022/10/26 05:28:16;;;;;;;28.98;17.40;;;11.30;99.90;;;;;;5008375;28;20052;-63
2022/10/26 05:30:43;;;;;;;24.95;17.05;;;9.50;99.90;;;;;;5001348;28;20065;-63
2022/10/26 05:33:10;;;;;;;28.23;17.10;;;9.60;99.90;;;;;;5000744;28;20075;-63
2022/10/26 05:35:36;;;;;;;31.00;17.35;;;9.70;99.90;;;;;;5006549;28;20133;-63
2022/10/26 05:38:12;;;;;;;29.70;18.17;;;9.70;99.90;;;;;;5002842;28;20106;-64
2022/10/26 05:40:45;;;;;;;24.85;16.52;;;9.70;99.90;;;;;;5007293;28;20033;-62
2022/10/26 05:43:10;;;;;;;29.00;16.75;;;10.90;99.90;;;;;;5004335;28;20048;-62
2022/10/26 05:45:36;;;;;;;26.25;16.63;;;10.30;99.90;;;;;;5003015;28;20045;-62
2022/10/26 05:48:02;;;;;;;27.40;17.63;;;11.10;99.90;;;;;;5006602;28;20129;-62
2022/10/26 05:50:27;;;;;;;25.90;17.30;;;9.80;99.90;;;;;;5005921;28;20068;-63
2022/10/26 05:52:54;;;;;;;26.13;16.58;;;11.90;99.90;;;;;;5002789;28;20045;-62
2022/10/26 05:55:20;;;;;;;22.98;15.60;;;9.90;99.90;;;;;;5003755;28;20514;-63
2022/10/26 05:57:46;;;;;;;31.00;17.38;;;9.80;99.90;;;;;;5005897;28;21689;-62
2022/10/26 06:00:17;;;;;;;24.08;15.98;;;9.80;99.90;;;;;;5004050;28;20041;-63
2022/10/26 06:03:00;;;;;;;19.80;15.10;;;9.90;99.90;;;;;;5001849;28;20145;-63
2022/10/26 06:05:27;;;;;;;;;;;9.90;99.90;;;;;;5001970;28;20046;-62
2022/10/26 06:07:53;;;;;;;24.13;15.52;;;9.90;99.90;;;;;;5004429;28;20069;-62
2022/10/26 06:10:19;;;;;;;25.80;16.45;;;10.00;99.90;;;;;;4999797;28;20046;-62
2022/10/26 06:12:45;;;;;;;27.42;16.17;;;9.90;99.90;;;;;;5002444;28;20048;-62
2022/10/26 06:15:21;;;;;;;22.13;15.93;;;10.10;99.90;;;;;;5004082;28;20414;-62
2022/10/26 06:18:06;;;;;;;28.17;15.10;;;9.90;99.90;;;;;;5002516;28;20053;-62
2022/10/26 06:20:54;;;;;;;21.73;15.00;;;10.20;99.90;;;;;;5006136;28;20056;-62
2022/10/26 06:23:22;;;;;;;24.63;15.18;;;10.00;99.90;;;;;;5005794;28;20054;-62
2022/10/26 06:25:54;;;;;;;22.65;14.52;;;11.60;99.90;;;;;;5004020;28;20080;-62
2022/10/26 06:28:49;;;;;;;22.02;15.00;;;10.10;99.90;;;;;;5004670;28;20445;-62
2022/10/26 06:31:15;;;;;;;25.48;13.55;;;10.00;99.90;;;;;;5005554;28;20046;-62
2022/10/26 06:33:41;;;;;;;20.52;14.43;;;10.10;99.90;;;;;;5005286;28;20053;-63
2022/10/26 06:36:22;;;;;;;24.15;14.93;;;12.30;99.90;;;;;;5008544;28;20095;-63
2022/10/26 06:38:52;;;;;;;22.83;14.38;;;10.10;99.90;;;;;;5008709;28;20041;-62
2022/10/26 06:41:19;;;;;;;25.15;14.52;;;10.20;99.90;;;;;;5009008;28;20050;-63
2022/10/26 06:43:45;;;;;;;21.52;14.48;;;11.10;99.90;;;;;;5005546;28;20094;-62
2022/10/26 06:46:30;;;;;;;26.25;14.43;;;10.20;99.90;;;;;;5003276;28;20045;-62
2022/10/26 06:48:59;;;;;;;20.33;13.85;;;10.40;99.90;;;;;;5004798;28;20058;-62
2022/10/26 06:51:26;;;;;;;22.67;12.88;;;10.40;99.90;;;;;;5007875;28;20137;-62
2022/10/26 06:54:04;;;;;;;24.63;13.70;;;10.30;99.90;;;;;;5003004;28;20384;-62
2022/10/26 06:56:30;;;;;;;19.98;13.48;;;10.40;99.90;;;;;;5004503;28;20045;-62
2022/10/26 06:59:07;;;;;;;20.42;13.68;;;10.80;99.90;;;;;;5007756;28;20083;-62
2022/10/26 07:01:33;;;;;;;23.10;13.90;;;10.40;99.90;;;;;;5004782;28;20067;-62
2022/10/26 07:03:59;;;;;;;19.88;12.65;;;10.40;99.90;;;;;;5009202;28;20042;-62
2022/10/26 07:06:24;;;;;;;21.75;12.13;;;10.50;99.90;;;;;;5008117;28;20056;-63
2022/10/26 07:08:50;;;;;;;16.00;11.40;;;11.30;99.90;;;;;;5005222;28;20037;-62
2022/10/26 07:11:16;;;;;;;19.52;12.10;;;10.60;99.90;;;;;;5005101;28;20037;-61
2022/10/26 07:13:41;;;;;;;20.38;12.20;;;10.60;99.90;;;;;;5006575;28;20140;-62
2022/10/26 07:16:07;;;;;;;19.48;11.95;;;10.70;99.90;;;;;;5007872;28;20047;-62
2022/10/26 07:18:33;;;;;;;18.95;10.93;;;10.70;99.90;;;;;;5008027;28;20052;-62
2022/10/26 07:20:58;;;;;;;18.17;10.55;;;10.80;99.90;;;;;;5004913;28;20852;-62
2022/10/26 07:23:24;;;;;;;16.67;11.82;;;12.40;99.90;;;;;;5007170;28;20083;-62
2022/10/26 07:25:50;;;;;;;15.57;10.63;;;10.80;99.90;;;;;;5006582;28;20136;-62
2022/10/26 07:28:16;;;;;;;16.05;10.23;;;11.00;99.90;;;;;;5007059;28;20094;-62
2022/10/26 07:30:41;;;;;;;17.50;11.23;;;10.80;99.90;;;;;;5008432;28;20049;-62
2022/10/26 07:33:10;;;;;;;17.58;10.63;;;11.00;99.90;;;;;;5005202;28;20150;-62
2022/10/26 07:35:36;;;;;;;13.82;9.85;;;12.20;99.90;;;;;;5008012;28;20056;-62
2022/10/26 07:38:03;;;;;;;19.58;10.85;;;11.00;99.90;;;;;;5005656;28;20042;-62
2022/10/26 07:40:29;;;;;;;18.35;11.27;;;13.00;99.90;;;;;;5008953;28;20057;-62
2022/10/26 07:42:59;;;;;;;14.50;9.30;;;11.30;99.90;;;;;;5007350;28;20076;-62
2022/10/26 07:45:27;;;;;;;17.60;9.55;;;11.20;99.90;;;;;;5008393;28;20049;-61
2022/10/26 07:47:53;;;;;;;16.77;9.52;;;12.30;99.90;;;;;;5004531;28;20050;-62
2022/10/26 07:50:19;;;;;;;16.10;9.25;;;11.30;99.90;;;;;;5005324;28;20122;-61
2022/10/26 07:52:44;;;;;;;17.13;8.60;;;11.30;99.90;;;;;;5006439;28;20037;-62
2022/10/26 07:55:11;;;;;;;14.55;9.20;;;12.00;99.90;;;;;;5005994;28;20072;-62
2022/10/26 07:57:37;;;;;;;14.10;8.30;;;11.90;99.90;;;;;;5005793;28;20053;-61
2022/10/26 08:00:05;;;;;;;16.83;9.75;;;11.50;99.90;;;;;;5002801;28;20076;-62
2022/10/26 08:02:31;;;;;;;15.82;9.48;;;11.70;99.90;;;;;;5007210;28;20404;-61
2022/10/26 08:04:57;;;;;;;13.40;8.18;;;12.80;99.90;;;;;;5005137;28;20148;-62
2022/10/26 08:07:24;;;;;;;14.65;8.25;;;11.50;99.90;;;;;;5007405;28;20136;-61
2022/10/26 08:09:50;;;;;;;11.98;7.35;;;13.90;99.90;;;;;;5004855;28;20132;-62
2022/10/26 08:12:16;;;;;;;16.83;7.90;;;11.80;99.90;;;;;;5003635;28;20040;-62
2022/10/26 08:14:42;;;;;;;14.95;7.70;;;11.70;99.90;;;;;;5007373;28;20041;-62
2022/10/26 08:17:08;;;;;;;10.98;6.75;;;12.00;99.90;;;;;;5002217;28;20087;-60
2022/10/26 08:19:34;;;;;;;13.90;7.13;;;12.10;99.90;;;;;;5004748;28;20120;-61
2022/10/26 08:22:00;;;;;;;11.45;6.28;;;12.30;99.90;;;;;;5003846;28;20045;-62
2022/10/26 08:24:25;;;;;;;13.35;5.93;;;12.60;99.90;;;;;;5006223;28;20062;-61
2022/10/26 08:26:51;;;;;;;13.45;5.85;;;12.80;99.90;;;;;;5008631;28;20986;-61
2022/10/26 08:29:17;;;;;;;8.82;5.55;;;12.80;99.90;;;;;;5003115;28;20049;-61
2022/10/26 08:31:42;;;;;;;10.32;5.68;;;13.10;99.90;;;;;;5000035;28;20087;-61
2022/10/26 08:34:08;;;;;;;11.73;5.75;;;13.60;99.90;;;;;;5003303;28;20050;-61
2022/10/26 08:36:34;;;;;;;14.88;6.05;;;14.20;99.90;;;;;;5005920;28;20041;-61
2022/10/26 08:39:00;;;;;;;10.25;5.65;;;13.40;99.90;;;;;;5006398;28;20368;-61
2022/10/26 08:41:42;;;;;;;10.07;5.45;;;13.70;99.90;;;;;;5004346;28;20128;-61
2022/10/26 08:44:18;;;;;;;;;;;13.60;99.90;;;;;;5006422;28;21480;-61
2022/10/26 08:46:49;;;;;;;10.30;5.13;;;13.60;99.90;;;;;;5004364;28;19925;-62
2022/10/26 08:49:41;;;;;;;11.13;4.97;;;13.90;99.90;;;;;;4963803;28;1243808;-62
2022/10/26 08:52:13;;;;;;;10.43;5.35;;;14.10;99.90;;;;;;5007312;28;20312;-62
2022/10/26 08:54:47;;;;;;;10.02;5.10;;;14.40;99.90;;;;;;5004917;28;20070;-62
2022/10/26 08:57:32;;;;;;;9.30;4.65;;;14.80;99.90;;;;;;5005191;28;20041;-62
2022/10/26 09:00:23;;;;;;;7.13;4.40;;;14.80;99.90;;;;;;5006181;28;20537;-61
2022/10/26 09:02:53;;;;;;;8.33;4.13;;;15.00;98.20;;;;;;5008106;28;20146;-62
2022/10/26 09:05:27;;;;;;;7.57;4.50;;;15.10;97.00;;;;;;5006309;28;21287;-62
2022/10/26 09:08:00;;;;;;;9.00;4.30;;;15.00;96.60;;;;;;5004409;28;20587;-61
2022/10/26 09:10:52;;;;;;;8.13;4.35;;;15.20;95.90;;;;;;5087828;27;20038;-62
2022/10/26 09:14:00;;;;;;;10.52;5.38;;;15.00;95.10;;;;;;5004171;28;20054;-61
2022/10/26 09:16:36;;;;;;;9.13;4.68;;;15.30;93.90;;;;;;5007179;28;20137;-62
2022/10/26 09:19:04;;;;;;;8.80;4.35;;;16.00;87.70;;;;;;5005569;28;20033;-61
2022/10/26 09:21:50;;;;;;;12.82;5.05;;;16.70;60.20;;;;;;5004888;28;20067;-62
2022/10/26 09:24:30;;;;;;;10.95;4.47;;;17.30;46.10;;;;;;5004261;28;20399;-63
2022/10/26 09:27:33;;;;;;;8.35;4.20;;;17.10;27.40;;;;;;5001807;28;20117;-62
2022/10/26 09:30:11;;;;;;;10.73;4.10;;;16.80;17.10;;;;;;5005706;28;20437;-62
2022/10/26 09:32:44;;;;;;;10.27;4.13;;;16.50;42.20;;;;;;5002308;28;20054;-63
2022/10/26 09:35:17;;;;;;;10.98;4.13;;;16.30;46.30;;;;;;5002165;28;20053;-63
2022/10/26 09:37:55;;;;;;;9.63;4.32;;;16.40;60.10;;;;;;5000686;28;20423;-63
2022/10/26 09:40:33;;;;;;;9.23;4.07;;;16.40;61.70;;;;;;5001395;28;20068;-62
2022/10/26 09:43:28;;;;;;;10.52;4.50;;;16.20;61.60;;;;;;5004895;28;20418;-63
2022/10/26 09:45:54;;;;;;;9.07;4.45;;;15.70;66.40;;;;;;5017215;28;20533;-62
2022/10/26 09:48:37;;;;;;;13.07;4.65;;;15.60;82.10;;;;;;5002544;28;20612;-63
2022/10/26 09:51:04;;;;;;;9.63;4.10;;;15.40;86.30;;;;;;5006471;28;20606;-63
2022/10/26 09:53:30;;;;;;;8.48;4.55;;;15.50;91.40;;;;;;5004876;28;20041;-62
2022/10/26 09:56:01;;;;;;;15.07;5.07;;;15.30;92.60;;;;;;5006807;28;20575;-63
2022/10/26 09:58:30;;;;;;;11.10;4.95;;;15.50;93.10;;;;;;5003231;28;20046;-62
2022/10/26 10:00:56;;;;;;;10.18;4.22;;;15.40;95.70;;;;;;5003928;28;20049;-62
2022/10/26 10:03:27;;;;;;;9.77;4.80;;;15.60;93.60;;;;;;4999981;28;20056;-62
2022/10/26 10:05:53;;;;;;;10.75;4.55;;;15.60;93.90;;;;;;5005349;28;20144;-62
2022/10/26 10:08:20;;;;;;;13.45;4.43;;;15.50;94.00;;;;;;5004974;28;20053;-62
2022/10/26 10:10:57;;;;;;;10.80;4.55;;;15.40;94.90;;;;;;5004759;28;20052;-63
2022/10/26 10:13:25;;;;;;;12.98;5.50;;;15.40;94.90;;;;;;5006527;28;20104;-63
2022/10/26 10:16:04;;;;;;;9.27;4.32;;;15.50;94.00;;;;;;5089612;27;20039;-63
2022/10/26 10:18:31;;;;;;;10.82;4.78;;;15.50;94.10;;;;;;5005741;28;20714;-63
2022/10/26 10:20:58;;;;;;;9.05;4.47;;;15.40;97.00;;;;;;5003420;28;20042;-63
2022/10/26 10:23:33;;;;;;;9.40;4.43;;;14.70;97.30;;;;;;5018309;28;20046;-63
2022/10/26 10:26:04;;;;;;;11.10;4.47;;;15.70;98.50;;;;;;5004097;28;20041;-63
2022/10/26 10:28:30;;;;;;;12.68;4.47;;;15.60;98.90;;;;;;5004148;28;20049;-63
2022/10/26 10:31:02;;;;;;;11.98;4.72;;;15.90;98.40;;;;;;5003413;28;20050;-63
2022/10/26 10:33:35;;;;;;;;;;;15.90;97.20;;;;;;5006201;28;20130;-63
2022/10/26 10:36:03;;;;;;;6.93;3.92;;;15.80;96.20;;;;;;5005051;28;20106;-63
2022/10/26 10:38:29;;;;;;;7.95;3.60;;;16.10;97.60;;;;;;5005562;28;20042;-63
2022/10/26 10:40:57;;;;;;;8.07;3.28;;;16.10;95.80;;;;;;5005148;28;20068;-63
2022/10/26 10:43:24;;;;;;;9.18;3.03;;;16.10;96.20;;;;;;5005350;28;20049;-63
2022/10/26 10:45:52;;;;;;;9.63;3.15;;;16.20;95.10;;;;;;5005334;28;20056;-63
2022/10/26 10:48:24;;;;;;;13.98;3.20;;;16.10;94.90;;;;;;5003329;28;20050;-63
2022/10/26 10:50:52;;;;;;;11.80;3.85;;;16.20;95.70;;;;;;5006624;28;20049;-62
2022/10/26 10:53:35;;;;;;;9.70;3.38;;;17.30;95.60;;;;;;5004290;28;20111;-63
2022/10/26 10:56:24;;;;;;;12.02;3.13;;;15.90;93.50;;;;;;5002334;28;20033;-63
2022/10/26 10:59:11;;;;;;;13.65;3.38;;;16.60;92.30;;;;;;5003815;28;20037;-63
2022/10/26 11:01:55;;;;;;;10.60;3.10;;;16.80;79.30;;;;;;5002180;28;20746;-63
2022/10/26 11:04:27;;;;;;;7.95;2.70;;;16.90;84.20;;;;;;5003273;28;20084;-63
2022/10/26 11:06:56;;;;;;;7.10;2.63;;;17.00;89.60;;;;;;5005002;28;20629;-63
2022/10/26 11:09:26;;;;;;;7.82;3.20;;;17.10;89.30;;;;;;4999494;28;20038;-63
2022/10/26 11:12:08;;;;;;;6.88;2.33;;;17.00;86.40;;;;;;5004205;28;20077;-64
2022/10/26 11:14:37;;;;;;;;;;;16.90;82.20;;;;;;5006549;28;20060;-63
2022/10/26 11:17:26;;;;;;;6.38;2.40;;;16.90;79.70;;;;;;5004734;28;19983;-63
2022/10/26 11:20:08;;;;;;;6.93;2.55;;;17.00;77.30;;;;;;5001639;28;20061;-64
2022/10/26 11:22:57;;;;;;;7.97;2.72;;;17.10;78.50;;;;;;5005327;28;20145;-64
2022/10/26 11:26:00;;;;;;;6.38;2.05;;;17.10;82.80;;;;;;5008193;28;20158;-64
2022/10/26 11:28:50;;;;;;;11.07;2.60;;;17.30;59.80;;;;;;5009340;28;20045;-64
2022/10/26 11:31:24;;;;;;;10.23;2.50;;;17.10;70.40;;;;;;5006788;28;20403;-64
2022/10/26 11:34:16;;;;;;;8.88;2.65;;;18.90;76.20;;;;;;5006699;28;20748;-64
2022/10/26 11:36:45;;;;;;;8.38;2.67;;;17.50;59.10;;;;;;5006151;28;20196;-64
2022/10/26 11:39:32;;;;;;;10.10;2.58;;;17.70;65.10;;;;;;5002643;28;20450;-65
2022/10/26 11:42:14;;;;;;;7.90;2.25;;;17.50;54.30;;;;;;5004357;28;20064;-62
2022/10/26 11:44:48;;;;;;;10.55;2.72;;;17.80;55.50;;;;;;5007431;28;20503;-62
2022/10/26 11:47:34;;;;;;;12.40;3.92;;;17.90;32.10;;;;;;5005890;28;20519;-61
2022/10/26 11:50:16;;;;;;;7.22;2.72;;;17.50;33.40;;;;;;5005770;28;20041;-61
2022/10/26 11:52:44;;;;;;;5.22;2.45;;;17.60;28.80;;;;;;5009438;28;20861;-61
2022/10/26 11:55:11;;;;;;;9.38;2.80;;;17.80;35.20;;;;;;5003474;28;20246;-61
2022/10/26 11:57:37;;;;;;;9.05;3.08;;;17.70;34.80;;;;;;5005799;28;20038;-62
2022/10/26 12:00:13;;;;;;;13.55;2.75;;;17.70;33.50;;;;;;5005086;28;20050;-61
2022/10/26 12:02:45;;;;;;;11.02;2.60;;;17.70;30.60;;;;;;5005591;28;20065;-61
2022/10/26 12:05:29;;;;;;;;;;;17.50;27.10;;;;;;5004381;28;20042;-62
2022/10/26 12:08:03;;;;;;;7.35;2.97;;;17.70;27.80;;;;;;5005609;28;20378;-60
2022/10/26 12:10:32;;;;;;;8.32;2.90;;;17.40;46.90;;;;;;5003984;28;20053;-62
2022/10/26 12:13:13;;;;;;;9.35;3.72;;;17.50;57.20;;;;;;5004695;28;20046;-61
2022/10/26 12:15:49;;;;;;;7.57;2.85;;;17.60;52.80;;;;;;5007372;28;20041;-61
2022/10/26 12:18:40;;;;;;;11.80;3.10;;;17.70;56.80;;;;;;5009329;28;20335;-62
2022/10/26 12:21:08;;;;;;;8.60;2.70;;;17.70;50.10;;;;;;5005522;28;20068;-61
2022/10/26 12:23:36;;;;;;;10.40;3.38;;;17.70;53.50;;;;;;5004435;28;20416;-61
2022/10/26 12:26:27;;;;;;;10.02;2.83;;;17.80;56.50;;;;;;5005217;28;20049;-61
2022/10/26 12:29:01;;;;;;;9.02;3.45;;;17.80;44.80;;;;;;5006194;28;20312;-62
2022/10/26 12:31:36;;;;;;;6.53;2.70;;;17.70;50.00;;;;;;5005088;28;20276;-62
2022/10/26 12:34:14;;;;;;;8.43;2.88;;;17.40;58.70;;;;;;5007048;28;20128;-61
2022/10/26 12:36:55;;;;;;;9.20;3.75;;;17.40;66.80;;;;;;5004920;28;20034;-61
2022/10/26 12:39:31;;;;;;;7.93;3.88;;;18.30;66.00;;;;;;5006083;28;20055;-61
2022/10/26 12:42:09;;;;;;;11.40;4.30;;;17.30;67.00;;;;;;5006817;28;20736;-62
2022/10/26 12:44:41;;;;;;;10.48;4.20;;;17.40;69.90;;;;;;5004666;28;20060;-61
2022/10/26 12:47:09;;;;;;;9.73;4.80;;;17.30;70.10;;;;;;5007123;28;20038;-62
2022/10/26 12:50:05;;;;;;;9.82;4.38;;;18.80;76.40;;;;;;5004414;28;20206;-61
2022/10/26 12:52:58;;;;;;;12.77;4.03;;;17.30;66.30;;;;;;5005959;28;20555;-61
2022/10/26 12:55:45;;;;;;;12.07;4.32;;;17.40;70.00;;;;;;5008413;28;20505;-62
2022/10/26 12:58:42;;;;;;;16.52;5.68;;;17.20;73.20;;;;;;5003970;28;20080;-61
2022/10/26 13:01:39;;;;;;;11.02;4.57;;;17.20;84.00;;;;;;5003651;28;20503;-62
2022/10/26 13:04:19;;;;;;;11.65;4.38;;;17.20;77.50;;;;;;5019582;28;20045;-61